Theydon Bois, United Kingdom
Current Conditions -  °F | °C
As of 4:20 PM on Thursday 29 Jan 2015 (Local Time) from EGLC Reporting Station
Few Clouds Few Clouds  
Wind Chill: 33°   Ceiling: Unl
Heat Index: 41°   Visibility: 6mi
Dew Point: 34°   Wind: 14mph
Humidity: 76%   Direction: 280°W
Pressure: 28.82"   Gusts: NA
Location:  51.67°N, 0.1°E
Report Text: EGLC 291620Z 28012KT 9999 FEW020 05/01 Q0976
Loading
Personal Weather Stations






























Interactive Weather Map New forecast layout! Learn more

10-Day Weather Forecast

Advertisements
Track Severe Weather on mobile